createdAt,value
2023-04-17T00:01:17.453Z,26.73
2023-04-17T00:03:44.670Z,25.40
2023-04-17T00:06:13.975Z,27.45
2023-04-17T00:08:40.656Z,23.05
2023-04-17T00:11:08.858Z,25.02
2023-04-17T00:13:36.306Z,24.05
2023-04-17T00:16:03.145Z,24.15
2023-04-17T00:18:29.682Z,25.33
2023-04-17T00:20:56.559Z,26.98
2023-04-17T00:23:23.020Z,28.67
2023-04-17T00:25:49.453Z,27.77
2023-04-17T00:28:15.951Z,25.10
2023-04-17T00:30:42.287Z,23.90
2023-04-17T00:33:08.662Z,27.98
2023-04-17T00:35:35.028Z,29.52
2023-04-17T00:38:01.437Z,28.38
2023-04-17T00:40:27.856Z,23.27
2023-04-17T00:42:59.856Z,29.80
2023-04-17T00:45:26.362Z,24.50
2023-04-17T00:47:53.633Z,29.05
2023-04-17T00:50:20.048Z,25.80
2023-04-17T00:52:47.373Z,25.85
2023-04-17T00:55:14.986Z,23.67
2023-04-17T00:57:42.415Z,27.23
2023-04-17T01:00:10.222Z,24.88
2023-04-17T01:02:37.862Z,24.00
2023-04-17T01:05:04.831Z,23.77
2023-04-17T01:07:31.433Z,24.90
2023-04-17T01:09:58.993Z,24.63
2023-04-17T01:12:25.807Z,24.13
2023-04-17T01:14:53.587Z,24.27
2023-04-17T01:17:20.430Z,24.88
2023-04-17T01:19:47.656Z,25.38
2023-04-17T01:22:16.336Z,26.15
2023-04-17T01:24:42.932Z,27.58
2023-04-17T01:27:09.387Z,26.15
2023-04-17T01:29:35.863Z,26.75
2023-04-17T01:32:02.308Z,25.20
2023-04-17T01:34:28.846Z,26.27
2023-04-17T01:36:55.329Z,26.95
2023-04-17T01:39:21.732Z,26.80
2023-04-17T01:41:48.262Z,26.80
2023-04-17T01:44:14.771Z,26.25
2023-04-17T01:46:41.287Z,25.25
2023-04-17T01:49:07.854Z,25.08
2023-04-17T01:51:34.298Z,28.45
2023-04-17T01:54:00.741Z,25.17
2023-04-17T01:56:27.195Z,26.67
2023-04-17T01:58:54.219Z,27.90
2023-04-17T02:01:20.718Z,27.05
2023-04-17T02:03:47.299Z,26.17
2023-04-17T02:06:15.238Z,28.48
2023-04-17T02:08:41.924Z,26.27
2023-04-17T02:11:09.985Z,25.98
2023-04-17T02:13:36.504Z,27.02
2023-04-17T02:16:03.016Z,30.35
2023-04-17T02:18:29.512Z,30.35
2023-04-17T02:20:55.912Z,25.48
2023-04-17T02:23:22.358Z,27.88
2023-04-17T02:25:48.732Z,24.50
2023-04-17T02:28:15.614Z,28.05
2023-04-17T02:30:42.078Z,27.08
2023-04-17T02:33:08.826Z,26.70
2023-04-17T02:35:35.346Z,25.42
2023-04-17T02:38:01.954Z,27.45
2023-04-17T02:40:28.309Z,26.27
2023-04-17T02:42:54.629Z,26.90
2023-04-17T02:45:21.056Z,25.20
2023-04-17T02:47:48.762Z,27.95
2023-04-17T02:50:15.425Z,30.50
2023-04-17T02:52:41.801Z,28.67
2023-04-17T02:55:09.558Z,28.02
2023-04-17T02:57:36.005Z,28.40
2023-04-17T03:00:05.070Z,26.10
2023-04-17T03:02:32.004Z,26.35
2023-04-17T03:05:02.012Z,27.92
2023-04-17T03:07:28.516Z,25.30
2023-04-17T03:09:57.417Z,27.05
2023-04-17T03:12:23.813Z,24.77
2023-04-17T03:14:50.905Z,25.42
2023-04-17T03:17:18.254Z,26.52
2023-04-17T03:19:44.709Z,28.02
2023-04-17T03:22:13.303Z,27.27
2023-04-17T03:24:41.175Z,28.60
2023-04-17T03:27:07.616Z,27.75
2023-04-17T03:29:34.047Z,29.15
2023-04-17T03:32:00.558Z,28.08
2023-04-17T03:34:28.227Z,27.27
2023-04-17T03:36:54.687Z,27.17
2023-04-17T03:39:21.352Z,27.70
2023-04-17T03:41:47.737Z,31.25
2023-04-17T03:44:14.167Z,30.05
2023-04-17T03:46:40.567Z,25.35
2023-04-17T03:49:06.891Z,30.08
2023-04-17T03:51:33.225Z,27.85
2023-04-17T03:53:59.771Z,28.30
2023-04-17T03:56:26.121Z,30.00
2023-04-17T03:58:52.534Z,32.15
2023-04-17T04:01:19.246Z,32.03
2023-04-17T04:03:45.861Z,31.02
2023-04-17T04:06:12.436Z,28.83
2023-04-17T04:08:38.833Z,27.13
2023-04-17T04:11:05.404Z,33.60
2023-04-17T04:13:31.745Z,30.25
2023-04-17T04:15:58.172Z,31.45
2023-04-17T04:18:24.555Z,31.30
2023-04-17T04:20:50.980Z,30.27
2023-04-17T04:23:17.326Z,28.02
2023-04-17T04:25:43.711Z,27.80
2023-04-17T04:28:10.453Z,29.45
2023-04-17T04:30:38.623Z,30.15
2023-04-17T04:33:05.693Z,31.83
2023-04-17T04:38:29.918Z,28.30
2023-04-17T04:41:06.105Z,29.83
2023-04-17T04:43:33.643Z,29.73
2023-04-17T04:46:00.446Z,30.63
2023-04-17T04:48:27.551Z,32.30
2023-04-17T04:50:54.575Z,32.35
2023-04-17T04:53:21.215Z,30.48
2023-04-17T04:55:47.662Z,32.92
2023-04-17T04:58:14.280Z,32.03
2023-04-17T05:00:40.841Z,30.10
2023-04-17T05:03:07.898Z,33.63
2023-04-17T05:05:35.898Z,32.92
2023-04-17T05:08:02.878Z,32.35
2023-04-17T05:10:29.387Z,31.02
2023-04-17T05:12:56.164Z,30.92
2023-04-17T05:15:22.730Z,31.92
2023-04-17T05:17:49.418Z,31.17
2023-04-17T05:20:16.253Z,29.92
2023-04-17T05:22:42.844Z,36.50
2023-04-17T05:25:09.566Z,32.38
2023-04-17T05:27:36.249Z,33.67
2023-04-17T05:30:02.992Z,34.08
2023-04-17T05:32:31.309Z,31.77
2023-04-17T05:34:57.950Z,31.00
2023-04-17T05:37:24.474Z,34.05
2023-04-17T05:39:50.976Z,33.50
2023-04-17T05:42:17.807Z,34.33
2023-04-17T05:44:44.331Z,37.08
2023-04-17T05:47:10.683Z,33.15
2023-04-17T05:49:37.108Z,34.28
2023-04-17T05:52:03.848Z,34.47
2023-04-17T05:54:30.387Z,35.90
2023-04-17T05:56:57.183Z,34.92
2023-04-17T05:59:23.731Z,34.60
2023-04-17T06:01:51.086Z,35.35
2023-04-17T06:04:18.674Z,32.83
2023-04-17T06:06:47.860Z,33.28
2023-04-17T06:09:14.705Z,32.65
2023-04-17T06:11:41.479Z,37.38
2023-04-17T06:14:08.087Z,34.90
2023-04-17T06:16:34.613Z,32.45
2023-04-17T06:19:01.165Z,33.95
2023-04-17T06:21:27.898Z,32.10
2023-04-17T06:23:54.466Z,34.78
2023-04-17T06:26:21.418Z,35.97
2023-04-17T06:28:48.069Z,36.55
2023-04-17T06:31:14.755Z,37.70
2023-04-17T06:33:41.386Z,32.80
2023-04-17T06:36:08.062Z,37.22
2023-04-17T06:38:34.659Z,30.63
2023-04-17T06:41:01.197Z,33.42
2023-04-17T06:43:27.666Z,34.17
2023-04-17T06:45:54.287Z,35.35
2023-04-17T06:48:21.055Z,31.88
2023-04-17T06:50:47.691Z,34.22
2023-04-17T06:53:20.104Z,34.50
2023-04-17T06:55:46.543Z,32.38
2023-04-17T06:58:13.430Z,32.38
2023-04-17T07:00:39.923Z,35.20
2023-04-17T07:03:06.748Z,34.38
2023-04-17T07:05:33.366Z,35.58
2023-04-17T07:07:59.858Z,36.08
2023-04-17T07:10:26.369Z,34.00
2023-04-17T07:12:52.936Z,35.45
2023-04-17T07:15:19.599Z,39.67
2023-04-17T07:17:46.373Z,34.08
2023-04-17T07:20:12.983Z,32.30
2023-04-17T07:22:39.978Z,33.28
2023-04-17T07:25:07.432Z,30.73
2023-04-17T07:27:34.088Z,32.95
2023-04-17T07:30:00.614Z,31.45
2023-04-17T07:32:28.101Z,32.65
2023-04-17T07:34:57.716Z,31.58
2023-04-17T07:37:24.314Z,32.42
2023-04-17T07:39:50.981Z,31.73
2023-04-17T07:42:17.584Z,32.22
2023-04-17T07:44:44.274Z,31.27
2023-04-17T07:47:11.103Z,32.08
2023-04-17T07:49:39.693Z,29.92
2023-04-17T07:52:06.349Z,31.40
2023-04-17T07:54:33.120Z,32.08
2023-04-17T07:57:03.454Z,32.00
2023-04-17T07:59:30.708Z,29.38
2023-04-17T08:01:57.711Z,26.95
2023-04-17T08:04:26.097Z,28.92
2023-04-17T08:06:52.876Z,27.15
2023-04-17T08:09:21.221Z,26.90
2023-04-17T08:11:56.874Z,25.48
2023-04-17T08:14:24.440Z,27.98
2023-04-17T08:16:51.581Z,27.45
2023-04-17T08:19:18.141Z,25.90
2023-04-17T08:21:50.158Z,26.67
2023-04-17T08:24:19.791Z,26.25
2023-04-17T08:26:47.330Z,23.67
2023-04-17T08:29:14.234Z,24.90
2023-04-17T08:31:41.265Z,26.50
2023-04-17T08:34:14.273Z,24.17
2023-04-17T08:36:42.699Z,23.40
2023-04-17T08:39:14.786Z,23.27
2023-04-17T08:41:54.986Z,24.52
2023-04-17T08:44:21.756Z,23.38
2023-04-17T08:46:49.745Z,24.45
2023-04-17T08:49:16.827Z,28.08
2023-04-17T08:51:43.451Z,24.13
2023-04-17T08:54:10.149Z,21.65
2023-04-17T08:56:54.433Z,22.70
2023-04-17T08:59:22.257Z,24.77
2023-04-17T09:02:06.782Z,23.27
2023-04-17T09:04:41.896Z,22.25
2023-04-17T09:07:13.528Z,24.80
2023-04-17T09:09:56.550Z,20.15
2023-04-17T09:12:24.974Z,24.50
2023-04-17T09:14:52.179Z,21.23
2023-04-17T09:17:20.308Z,22.42
2023-04-17T09:20:13.247Z,22.15
2023-04-17T09:22:41.056Z,22.88
2023-04-17T09:25:21.436Z,18.15
2023-04-17T09:27:48.038Z,17.35
2023-04-17T09:30:15.077Z,19.45
2023-04-17T09:32:41.796Z,17.65
2023-04-17T09:35:09.033Z,15.10
2023-04-17T09:37:55.642Z,14.25
2023-04-17T09:40:25.102Z,18.27
2023-04-17T09:42:54.661Z,14.60
2023-04-17T09:45:22.349Z,15.80
2023-04-17T09:47:48.938Z,12.95
2023-04-17T09:50:22.067Z,15.30
2023-04-17T09:52:52.470Z,17.15
2023-04-17T09:55:23.693Z,13.93
2023-04-17T09:57:54.793Z,16.40
2023-04-17T10:00:23.777Z,14.15
2023-04-17T10:02:54.143Z,17.40
2023-04-17T10:05:29.164Z,17.48
2023-04-17T10:07:56.550Z,17.48
2023-04-17T10:10:31.350Z,18.38
2023-04-17T10:13:01.205Z,21.17
2023-04-17T10:15:29.031Z,18.02
2023-04-17T10:17:58.738Z,16.75
2023-04-17T10:20:25.269Z,18.63
2023-04-17T10:22:56.719Z,17.15
2023-04-17T10:25:27.955Z,18.13
2023-04-17T10:27:54.673Z,19.35
2023-04-17T10:30:26.346Z,17.00
2023-04-17T10:33:21.894Z,15.98
2023-04-17T10:35:51.943Z,15.32
2023-04-17T10:38:39.049Z,18.17
2023-04-17T10:41:09.376Z,13.70
2023-04-17T10:43:40.526Z,17.65
2023-04-17T10:46:14.711Z,18.52
2023-04-17T10:48:50.602Z,15.88
2023-04-17T10:51:23.540Z,14.27
2023-04-17T10:53:51.670Z,19.75
2023-04-17T10:56:24.313Z,14.40
2023-04-17T10:59:00.695Z,15.30
2023-04-17T11:01:49.112Z,16.73
2023-04-17T11:04:23.572Z,13.30
2023-04-17T11:06:52.701Z,15.23
2023-04-17T11:09:27.825Z,16.58
2023-04-17T11:11:54.848Z,14.75
2023-04-17T11:14:23.321Z,14.35
2023-04-17T11:16:51.787Z,12.30
2023-04-17T11:19:23.185Z,12.90
2023-04-17T11:21:52.088Z,12.48
2023-04-17T11:24:29.619Z,12.43
2023-04-17T11:26:59.813Z,14.38
2023-04-17T11:29:27.684Z,14.93
2023-04-17T11:31:56.204Z,12.68
2023-04-17T11:34:24.888Z,13.52
2023-04-17T11:36:57.215Z,13.75
2023-04-17T11:39:25.582Z,11.13
2023-04-17T11:41:52.770Z,12.05
2023-04-17T11:44:23.585Z,13.65
2023-04-17T11:46:51.737Z,11.55
2023-04-17T11:49:39.027Z,12.05
2023-04-17T11:52:05.957Z,13.90
2023-04-17T11:54:37.211Z,10.50
2023-04-17T11:57:06.104Z,12.05
2023-04-17T11:59:34.184Z,13.63
2023-04-17T12:02:01.987Z,16.40
2023-04-17T12:04:30.105Z,12.13
2023-04-17T12:06:59.176Z,14.48
2023-04-17T12:09:31.306Z,12.07
2023-04-17T12:11:58.624Z,10.02
2023-04-17T12:14:26.447Z,10.63
2023-04-17T12:16:53.304Z,12.73
2023-04-17T12:19:19.880Z,12.15
2023-04-17T12:21:49.147Z,12.15
2023-04-17T12:24:18.162Z,12.23
2023-04-17T12:26:49.323Z,10.65
2023-04-17T12:29:16.659Z,10.25
2023-04-17T12:31:44.561Z,12.75
2023-04-17T12:34:11.309Z,10.73
2023-04-17T12:36:38.298Z,11.23
2023-04-17T12:39:04.726Z,9.68
2023-04-17T12:41:31.829Z,9.00
2023-04-17T12:44:01.606Z,8.48
2023-04-17T12:46:28.351Z,10.25
2023-04-17T12:48:58.367Z,9.95
2023-04-17T12:51:27.800Z,9.82
2023-04-17T12:53:55.188Z,7.80
2023-04-17T12:56:21.688Z,11.27
2023-04-17T12:58:48.150Z,8.43
2023-04-17T13:01:14.535Z,11.00
2023-04-17T13:03:41.410Z,11.07
2023-04-17T13:06:08.031Z,13.98
2023-04-17T13:08:34.486Z,9.90
2023-04-17T13:11:03.523Z,10.43
2023-04-17T13:13:29.943Z,10.90
2023-04-17T13:15:56.392Z,9.38
2023-04-17T13:18:22.855Z,8.05
2023-04-17T13:20:49.450Z,7.93
2023-04-17T13:23:15.876Z,8.60
2023-04-17T13:25:42.357Z,10.30
2023-04-17T13:28:08.859Z,8.77
2023-04-17T13:30:37.021Z,8.98
2023-04-17T13:33:03.833Z,8.50
2023-04-17T13:35:30.399Z,7.38
2023-04-17T13:38:00.775Z,9.40
2023-04-17T13:40:27.370Z,10.32
2023-04-17T13:42:54.500Z,7.72
2023-04-17T13:45:21.059Z,11.18
2023-04-17T13:47:47.701Z,7.32
2023-04-17T13:50:14.276Z,10.25
2023-04-17T13:52:40.697Z,8.18
2023-04-17T13:55:11.667Z,9.68
2023-04-17T13:57:38.244Z,8.27
2023-04-17T14:00:05.144Z,9.68
2023-04-17T14:02:31.875Z,9.73
2023-04-17T14:04:58.680Z,9.77
2023-04-17T14:07:27.263Z,9.65
2023-04-17T14:09:53.726Z,10.73
2023-04-17T14:12:21.680Z,9.90
2023-04-17T14:14:48.369Z,8.52
2023-04-17T14:17:14.991Z,10.52
2023-04-17T14:19:41.519Z,10.93
2023-04-17T14:22:08.150Z,9.70
2023-04-17T14:24:34.540Z,11.43
2023-04-17T14:27:02.111Z,10.60
2023-04-17T14:29:31.598Z,8.50
2023-04-17T14:31:58.141Z,8.75
2023-04-17T14:34:24.844Z,9.65
2023-04-17T14:36:51.702Z,8.57
2023-04-17T14:39:19.612Z,9.40
2023-04-17T14:41:46.189Z,6.93
2023-04-17T14:44:13.101Z,7.05
2023-04-17T14:46:39.993Z,8.15
2023-04-17T14:49:06.560Z,8.93
2023-04-17T14:51:33.009Z,10.35
2023-04-17T14:54:02.499Z,7.93
2023-04-17T14:56:28.953Z,10.38
2023-04-17T14:58:55.406Z,7.03
2023-04-17T15:01:21.938Z,7.72
2023-04-17T15:03:49.176Z,6.65
2023-04-17T15:06:16.609Z,8.43
2023-04-17T15:08:43.245Z,9.45
2023-04-17T15:11:09.759Z,7.82
2023-04-17T15:13:36.304Z,7.40
2023-04-17T15:16:03.393Z,7.68
2023-04-17T15:18:29.885Z,9.73
2023-04-17T15:20:56.402Z,10.95
2023-04-17T15:23:23.021Z,8.68
2023-04-17T15:25:49.500Z,9.27
2023-04-17T15:28:16.008Z,9.00
2023-04-17T15:30:42.662Z,10.98
2023-04-17T15:33:10.227Z,8.90
2023-04-17T15:35:37.387Z,10.38
2023-04-17T15:38:05.180Z,9.13
2023-04-17T15:40:31.654Z,13.35
2023-04-17T15:42:58.244Z,8.00
2023-04-17T15:45:25.779Z,8.68
2023-04-17T15:47:53.523Z,7.97
2023-04-17T15:50:21.070Z,8.57
2023-04-17T15:52:47.981Z,7.32
2023-04-17T15:55:14.992Z,8.18
2023-04-17T15:57:43.074Z,8.82
2023-04-17T16:00:10.431Z,11.93
2023-04-17T16:02:37.183Z,11.52
2023-04-17T16:05:04.257Z,9.35
2023-04-17T16:07:31.545Z,10.73
2023-04-17T16:09:58.271Z,10.27
2023-04-17T16:12:24.707Z,10.52
2023-04-17T16:14:51.244Z,10.02
2023-04-17T16:17:17.801Z,10.75
2023-04-17T16:19:44.197Z,11.05
2023-04-17T16:22:10.631Z,8.32
2023-04-17T16:24:37.044Z,9.10
2023-04-17T16:27:04.111Z,9.77
2023-04-17T16:29:30.664Z,9.57
2023-04-17T16:31:57.345Z,10.95
2023-04-17T16:34:23.800Z,9.55
2023-04-17T16:36:50.261Z,10.05
2023-04-17T16:39:16.824Z,9.73
2023-04-17T16:41:43.672Z,8.80
2023-04-17T16:44:10.398Z,10.70
2023-04-17T16:46:52.149Z,9.40
2023-04-17T16:49:23.617Z,10.30
2023-04-17T16:51:50.356Z,10.65
2023-04-17T16:54:18.751Z,10.25
2023-04-17T16:56:46.754Z,9.88
2023-04-17T16:59:13.683Z,9.82
2023-04-17T17:01:40.434Z,13.52
2023-04-17T17:04:07.202Z,10.77
2023-04-17T17:06:33.946Z,10.98
2023-04-17T17:09:00.724Z,9.95
2023-04-17T17:11:27.244Z,11.63
2023-04-17T17:13:53.819Z,9.48
2023-04-17T17:16:23.270Z,9.55
2023-04-17T17:18:49.836Z,9.27
2023-04-17T17:21:16.520Z,11.20
2023-04-17T17:23:43.035Z,12.07
2023-04-17T17:26:09.670Z,10.98
2023-04-17T17:28:36.566Z,12.25
2023-04-17T17:31:07.431Z,12.15
2023-04-17T17:33:35.157Z,10.40
2023-04-17T17:36:02.881Z,10.80
2023-04-17T17:38:30.806Z,12.95
2023-04-17T17:40:57.484Z,9.95
2023-04-17T17:43:24.519Z,11.63
2023-04-17T17:45:53.519Z,11.82
2023-04-17T17:48:20.513Z,15.55
2023-04-17T17:50:47.971Z,10.48
2023-04-17T17:53:17.525Z,12.25
2023-04-17T17:55:53.854Z,9.95
2023-04-17T17:58:21.761Z,12.63
2023-04-17T18:00:49.586Z,10.85
2023-04-17T18:03:17.265Z,10.07
2023-04-17T18:05:45.002Z,9.82
2023-04-17T18:08:11.632Z,9.93
2023-04-17T18:10:38.948Z,8.52
2023-04-17T18:13:06.099Z,10.07
2023-04-17T18:15:32.802Z,13.30
2023-04-17T18:17:59.510Z,12.38
2023-04-17T18:20:26.189Z,13.02
2023-04-17T18:22:52.779Z,11.43
2023-04-17T18:25:19.462Z,9.77
2023-04-17T18:27:45.963Z,9.10
2023-04-17T18:30:13.016Z,10.55
2023-04-17T18:32:39.554Z,10.48
2023-04-17T18:35:06.615Z,10.00
2023-04-17T18:37:33.237Z,10.18
2023-04-17T18:39:59.792Z,11.45
2023-04-17T18:42:26.248Z,12.50
2023-04-17T18:44:52.710Z,9.05
2023-04-17T18:47:19.231Z,12.45
2023-04-17T18:49:45.783Z,9.32
2023-04-17T18:52:12.356Z,9.52
2023-04-17T18:54:38.918Z,12.35
2023-04-17T18:57:05.398Z,8.88
2023-04-17T18:59:31.969Z,10.15
2023-04-17T19:01:58.513Z,9.50
2023-04-17T19:04:25.069Z,10.23
2023-04-17T19:06:51.628Z,12.63
2023-04-17T19:09:18.179Z,12.05
2023-04-17T19:11:44.751Z,10.05
2023-04-17T19:14:11.538Z,9.02
2023-04-17T19:16:38.442Z,10.02
2023-04-17T19:19:05.730Z,9.15
2023-04-17T19:21:32.851Z,9.38
2023-04-17T19:23:59.531Z,7.40
2023-04-17T19:26:26.095Z,12.02
2023-04-17T19:28:52.674Z,10.65
2023-04-17T19:31:19.284Z,11.32
2023-04-17T19:33:45.796Z,10.40
2023-04-17T19:36:12.270Z,10.52
2023-04-17T19:38:38.824Z,10.05
2023-04-17T19:41:23.550Z,12.95
2023-04-17T19:43:51.495Z,11.48
2023-04-17T19:46:19.437Z,9.75
2023-04-17T19:48:47.048Z,7.88
2023-04-17T19:51:14.876Z,8.63
2023-04-17T19:53:43.823Z,10.20
2023-04-17T19:56:10.911Z,9.35
2023-04-17T19:58:38.413Z,8.45
2023-04-17T20:01:05.184Z,12.43
2023-04-17T20:03:32.691Z,11.65
2023-04-17T20:05:59.821Z,10.88
2023-04-17T20:08:26.700Z,13.40
2023-04-17T20:10:53.774Z,10.70
2023-04-17T20:13:20.368Z,15.65
2023-04-17T20:15:46.992Z,8.40
2023-04-17T20:18:13.665Z,9.40
2023-04-17T20:20:40.379Z,7.47
2023-04-17T20:23:07.072Z,9.80
2023-04-17T20:25:33.599Z,9.13
2023-04-17T20:28:02.838Z,13.45
2023-04-17T20:30:29.634Z,9.85
2023-04-17T20:32:56.696Z,7.78
2023-04-17T20:35:24.703Z,7.13
2023-04-17T20:37:52.147Z,10.00
2023-04-17T20:40:19.698Z,8.88
2023-04-17T20:42:47.470Z,8.48
2023-04-17T20:45:14.310Z,11.60
2023-04-17T20:47:56.054Z,10.95
2023-04-17T20:50:23.705Z,8.80
2023-04-17T20:52:50.388Z,8.50
2023-04-17T20:55:18.763Z,13.45
2023-04-17T20:57:45.983Z,9.50
2023-04-17T21:00:13.037Z,8.23
2023-04-17T21:02:39.879Z,8.07
2023-04-17T21:05:07.713Z,10.00
2023-04-17T21:07:34.720Z,8.52
2023-04-17T21:10:02.016Z,9.40
2023-04-17T21:12:28.771Z,12.35
2023-04-17T21:14:55.274Z,11.23
2023-04-17T21:17:22.800Z,10.52
2023-04-17T21:19:49.485Z,9.88
2023-04-17T21:22:16.176Z,10.27
2023-04-17T21:24:42.868Z,8.48
2023-04-17T21:27:10.248Z,9.10
2023-04-17T21:29:36.896Z,8.60
2023-04-17T21:32:03.877Z,9.05
2023-04-17T21:34:30.556Z,11.35
2023-04-17T21:36:59.339Z,11.07
2023-04-17T21:39:25.962Z,15.20
2023-04-17T21:41:52.501Z,12.30
2023-04-17T21:44:19.134Z,13.73
2023-04-17T21:46:46.094Z,12.43
2023-04-17T21:49:13.014Z,9.82
2023-04-17T21:51:39.848Z,11.55
2023-04-17T21:54:06.494Z,9.73
2023-04-17T21:56:33.093Z,11.90
2023-04-17T21:58:59.638Z,9.52
2023-04-17T22:01:26.286Z,11.57
2023-04-17T22:03:53.120Z,11.82
2023-04-17T22:06:19.654Z,11.55
2023-04-17T22:08:46.353Z,10.88
2023-04-17T22:11:12.914Z,13.48
2023-04-17T22:13:39.484Z,11.95
2023-04-17T22:16:06.328Z,11.85
2023-04-17T22:18:32.893Z,11.23
2023-04-17T22:20:59.428Z,13.00
2023-04-17T22:23:26.026Z,10.65
2023-04-17T22:25:52.500Z,15.40
2023-04-17T22:28:19.197Z,10.43
2023-04-17T22:30:49.268Z,9.65
2023-04-17T22:33:15.780Z,14.07
2023-04-17T22:35:42.334Z,9.93
2023-04-17T22:38:08.877Z,11.27
2023-04-17T22:40:35.287Z,13.25
2023-04-17T22:43:01.606Z,11.60
2023-04-17T22:45:27.934Z,11.65
2023-04-17T22:47:54.287Z,8.90
2023-04-17T22:50:21.751Z,11.15
2023-04-17T22:52:48.115Z,10.10
2023-04-17T22:55:14.643Z,12.02
2023-04-17T22:57:41.016Z,12.75
2023-04-17T23:00:11.423Z,13.48
2023-04-17T23:02:37.920Z,10.55
2023-04-17T23:05:05.331Z,8.88
2023-04-17T23:07:32.379Z,10.40
2023-04-17T23:09:58.788Z,10.02
2023-04-17T23:12:25.184Z,11.20
2023-04-17T23:14:51.490Z,10.73
2023-04-17T23:17:17.877Z,9.32
2023-04-17T23:19:44.192Z,11.35
2023-04-17T23:22:10.728Z,10.07
2023-04-17T23:24:37.276Z,11.85
2023-04-17T23:27:03.728Z,9.40
2023-04-17T23:29:30.242Z,10.05
2023-04-17T23:31:56.536Z,12.88
2023-04-17T23:34:22.902Z,11.48
2023-04-17T23:36:49.208Z,10.27
2023-04-17T23:39:15.583Z,11.20
2023-04-17T23:41:42.739Z,12.18
2023-04-17T23:44:09.686Z,10.60
2023-04-17T23:46:36.859Z,12.15
2023-04-17T23:49:03.705Z,12.85
2023-04-17T23:51:30.325Z,11.10
2023-04-17T23:53:59.289Z,11.65
2023-04-17T23:56:26.009Z,12.77
2023-04-17T23:58:52.643Z,12.52
